Data for 06/07/2007

Time Sea-Level Adjusted Pressure Absolute Pressure Temperature Relative Humidity Dew Point   
(mb) (inHg) (mb) (inHg) (C) (F) (%) (C) (F)
00:05 1007 29.74 837 24.72 3.5 38.3 93 2.4 36.3
00:10 1008 29.77 837 24.72 3.5 38.3 93 2.5 36.5
00:15 1008 29.77 837 24.72 3.5 38.4 93 2.6 36.7
00:20 1008 29.77 837 24.72 3.5 38.4 93 2.5 36.4
00:25 1008 29.77 837 24.72 3.6 38.5 93 2.5 36.6
00:30 1008 29.77 837 24.72 3.6 38.6 92 2.5 36.5
00:35 1008 29.77 837 24.72 3.6 38.5 93 2.5 36.6
00:40 1008 29.77 837 24.72 3.6 38.4 93 2.6 36.7
00:45 1008 29.77 837 24.72 3.6 38.5 93 2.6 36.6
00:50 1008 29.77 837 24.72 3.7 38.6 93 2.7 36.8
00:55 1008 29.77 837 24.72 3.6 38.6 94 2.7 36.9
01:00 1008 29.77 837 24.72 3.7 38.6 94 2.8 37
01:05 1008 29.77 837 24.72 3.7 38.7 94 2.8 37.1
01:10 1008 29.77 837 24.72 3.9 39 94 3 37.5
01:15 1008 29.77 837 24.72 4 39.1 95 3.2 37.7
01:20 1008 29.77 837 24.72 4 39.3 95 3.3 38
01:25 1008 29.77 837 24.72 4.1 39.3 96 3.4 38.2
01:30 1008 29.77 838 24.75 4.1 39.4 96 3.5 38.3
01:35 1008 29.77 838 24.75 4.1 39.4 96 3.5 38.3
01:40 1009 29.8 838 24.75 4.1 39.4 96 3.5 38.3
01:45 1009 29.8 838 24.75 4.1 39.4 96 3.5 38.4
01:50 1009 29.8 838 24.75 4.2 39.5 96 3.6 38.5
01:55 1009 29.8 838 24.75 4.2 39.5 96 3.5 38.4
02:00 1009 29.8 838 24.75 4.2 39.6 95 3.5 38.4
02:05 1009 29.8 838 24.75 4.2 39.6 95 3.6 38.4
02:10 1009 29.8 838 24.75 4.2 39.6 95 3.6 38.4
02:15 1009 29.8 838 24.75 4.3 39.7 95 3.6 38.5
02:20 1009 29.8 838 24.75 4.3 39.7 95 3.6 38.4
02:25 1009 29.8 838 24.75 4.3 39.7 95 3.6 38.5
02:30 1009 29.8 838 24.75 4.3 39.8 95 3.6 38.6
02:35 1009 29.8 838 24.75 4.4 39.9 95 3.7 38.6
02:40 1009 29.8 839 24.78 4.4 39.9 95 3.7 38.7
02:45 1010 29.83 839 24.78 4.4 39.9 95 3.7 38.7
02:50 1010 29.83 839 24.78 4.4 39.8 95 3.7 38.6
02:55 1010 29.83 839 24.78 4.4 40 95 3.6 38.5
03:00 1010 29.83 839 24.78 4.4 39.9 94 3.5 38.2
03:05 1010 29.83 839 24.78 4.3 39.8 93 3.3 37.9
03:10 1010 29.83 839 24.78 4.3 39.7 93 3.3 37.9
03:15 1010 29.83 839 24.78 4.3 39.7 93 3.2 37.8
03:20 1010 29.83 839 24.78 4.2 39.5 93 3.1 37.6
03:25 1010 29.83 840 24.81 4.2 39.6 92 3.1 37.5
03:30 1010 29.83 840 24.81 4.2 39.5 92 3 37.5
03:35 1010 29.83 840 24.81 4.2 39.5 92 2.9 37.3
03:40 1010 29.83 840 24.81 4.2 39.6 91 2.8 37.1
03:45 1011 29.85 840 24.81 4.2 39.6 90 2.8 37
03:50 1011 29.85 840 24.81 4.2 39.6 90 2.8 37
03:55 1011 29.85 840 24.81 4.2 39.6 90 2.7 36.8
04:00 1011 29.85 840 24.81 4.2 39.6 89 2.6 36.8
04:05 1011 29.85 840 24.81 4.2 39.6 89 2.5 36.5
04:10 1011 29.85 840 24.81 4.2 39.6 88 2.4 36.3
04:15 1011 29.85 840 24.81 4.2 39.6 88 2.3 36.2
04:20 1011 29.85 840 24.81 4.2 39.5 87 2.3 36.1
04:25 1011 29.85 841 24.83 4.1 39.4 87 2.2 36
04:30 1011 29.85 841 24.83 4.1 39.3 87 2.1 35.9
04:35 1012 29.88 841 24.83 4.1 39.3 87 2.1 35.7
04:40 1012 29.88 841 24.83 4 39.3 87 2 35.7
04:45 1012 29.88 841 24.83 4 39.2 86 1.9 35.5
04:50 1012 29.88 841 24.83 3.9 39.1 87 1.9 35.4
04:55 1012 29.88 841 24.83 3.9 39 87 2 35.5
05:00 1012 29.88 841 24.83 3.8 38.9 87 1.9 35.4
05:05 1012 29.88 841 24.83 3.8 38.9 87 1.9 35.5
05:10 1012 29.88 841 24.83 3.7 38.7 88 1.9 35.5
05:15 1012 29.88 841 24.83 3.7 38.6 89 1.9 35.5
05:20 1012 29.88 842 24.86 3.6 38.5 89 1.9 35.5
05:25 1012 29.88 842 24.86 3.6 38.5 89 1.9 35.5
05:30 1013 29.91 842 24.86 3.6 38.5 89 1.9 35.4
05:35 1013 29.91 842 24.86 3.6 38.4 89 1.9 35.4
05:40 1013 29.91 842 24.86 3.6 38.4 88 1.8 35.2
05:45 1013 29.91 842 24.86 3.6 38.4 87 1.6 34.9
05:50 1013 29.91 842 24.86 3.6 38.5 87 1.6 34.9
05:55 1013 29.91 842 24.86 3.6 38.4 87 1.6 34.8
06:00 1013 29.91 842 24.86 3.6 38.5 86 1.5 34.7
06:05 1013 29.91 843 24.89 3.6 38.6 86 1.6 34.8
06:10 1014 29.94 843 24.89 3.7 38.6 86 1.6 34.8
06:15 1014 29.94 843 24.89 3.7 38.7 86 1.6 34.8
06:20 1014 29.94 843 24.89 3.7 38.7 85 1.4 34.5
06:25 1014 29.94 843 24.89 3.8 38.8 85 1.5 34.7
06:30 1014 29.94 843 24.89 3.8 38.8 84 1.3 34.4
06:35 1014 29.94 843 24.89 3.8 38.9 84 1.3 34.4
06:40 1014 29.94 843 24.89 3.9 39 84 1.4 34.5
06:45 1014 29.94 843 24.89 3.9 39 85 1.6 34.9
06:50 1014 29.94 843 24.89 3.9 39 86 1.7 35.1
06:55 1014 29.94 844 24.92 3.9 39 85 1.6 34.9
07:00 1015 29.97 844 24.92 4 39.1 84 1.5 34.6
07:05 1015 29.97 844 24.92 4 39.2 84 1.5 34.7
07:10 1015 29.97 844 24.92 4.2 39.5 83 1.6 34.8
07:15 1015 29.97 844 24.92 4.3 39.7 83 1.6 34.9
07:20 1015 29.97 844 24.92 4.3 39.8 84 1.9 35.4
07:25 1015 29.97 844 24.92 4.4 40 84 1.9 35.4
07:30 1015 29.97 844 24.92 4.7 40.4 83 2.1 35.7
07:35 1015 29.97 844 24.92 4.7 40.5 82 2 35.6
07:40 1015 29.97 844 24.92 4.9 40.7 81 1.8 35.2
07:45 1015 29.97 844 24.92 5 41 81 1.9 35.5
07:50 1015 29.97 844 24.92 5.1 41.1 79 1.8 35.2
07:55 1015 29.97 844 24.92 5.1 41.2 79 1.8 35.2
08:00 1015 29.97 844 24.92 5.1 41.2 79 1.9 35.3
08:05 1015 29.97 844 24.92 5.2 41.4 79 1.9 35.5
08:10 1015 29.97 844 24.92 5.3 41.6 79 2 35.6
08:15 1015 29.97 845 24.95 5.5 41.9 79 2.1 35.8
08:20 1015 29.97 845 24.95 5.6 42.1 76 1.8 35.2
08:25 1016 30 845 24.95 5.9 42.6 78 2.2 36
08:30 1016 30 845 24.95 6.3 43.4 75 2.2 36
08:35 1016 30 845 24.95 6.8 44.2 73 2.3 36.1
08:40 1016 30 845 24.95 6.6 43.9 73 2.1 35.7
08:45 1016 30 845 24.95 6.4 43.6 76 2.5 36.4
08:50 1016 30 845 24.95 6.5 43.7 73 2 35.6
08:55 1016 30 845 24.95 6.4 43.6 74 2.1 35.8
09:00 1016 30 845 24.95 6.3 43.4 75 2.2 35.9
09:05 1016 30 845 24.95 6.3 43.3 75 2.1 35.8
09:10 1016 30 845 24.95 6.6 44 74 2.3 36.2
09:15 1016 30 845 24.95 7 44.6 71 2.1 35.8
09:20 1016 30 845 24.95 6.9 44.4 73 2.4 36.4
09:25 1016 30 845 24.95 7.1 44.7 71 2.2 36
09:30 1016 30 845 24.95 7.5 45.5 69 2.2 35.9
09:35 1016 30 846 24.98 7.6 45.6 68 2.2 35.9
09:40 1016 30 846 24.98 8 46.5 65 2 35.6
09:45 1016 30 846 24.98 8.1 46.5 68 2.5 36.6
09:50 1016 30 846 24.98 8.1 46.5 67 2.2 36
09:55 1016 30 846 24.98 7.9 46.3 68 2.5 36.5
10:00 1016 30 846 24.98 8.7 47.6 65 2.6 36.6
10:05 1016 30 846 24.98 9.4 48.9 62 2.5 36.5
10:10 1016 30 846 24.98 9.2 48.6 63 2.7 36.8
10:15 1017 30.03 846 24.98 8.7 47.7 64 2.4 36.4
10:20 1016 30 846 24.98 8.2 46.7 64 1.9 35.5
10:25 1016 30 846 24.98 8.9 48.1 64 2.5 36.6
10:30 1016 30 846 24.98 9.4 48.8 63 2.6 36.7
10:35 1016 30 846 24.98 9.3 48.7 62 2.4 36.2
10:40 1017 30.03 846 24.98 9.3 48.8 63 2.7 36.8
10:45 1017 30.03 846 24.98 8.5 47.4 65 2.4 36.4
10:50 1017 30.03 846 24.98 8.3 47 66 2.3 36.1
10:55 1017 30.03 846 24.98 8.4 47.1 65 2.3 36.1
11:00 1016 30 846 24.98 8.2 46.8 67 2.4 36.4
11:05 1016 30 846 24.98 9 48.1 62 2 35.7
11:10 1016 30 846 24.98 9.9 49.9 59 2.4 36.3
11:15 1016 30 846 24.98 10.5 50.8 55 1.8 35.3
11:20 1016 30 846 24.98 10.7 51.2 55 2.1 35.8
11:25 1016 30 846 24.98 10.9 51.7 54 2.2 35.9
11:30 1017 30.03 846 24.98 10.3 50.6 53 1.2 34.1
11:35 1017 30.03 846 24.98 10.7 51.2 53 1.4 34.6
11:40 1017 30.03 846 24.98 10.8 51.4 50 0.7 33.3
11:45 1017 30.03 846 24.98 11.1 51.9 50 1.2 34.1
11:50 1017 30.03 846 24.98 10.5 51 50 0.7 33.2
11:55 1017 30.03 846 24.98 10.1 50.1 53 0.9 33.6
12:00 1017 30.03 846 24.98 9.4 48.8 54 0.5 33
12:05 1017 30.03 846 24.98 9.2 48.5 54 0.3 32.5
12:10 1017 30.03 846 24.98 9.4 48.9 56 1.2 34.1
12:15 1017 30.03 846 24.98 9.1 48.5 58 1.3 34.3
12:20 1017 30.03 846 24.98 8.9 48 58 1 33.9
12:25 1017 30.03 846 24.98 8.9 48 58 1.1 33.9
12:30 1017 30.03 846 24.98 8.9 47.9 57 0.8 33.5
12:35 1017 30.03 846 24.98 9.2 48.6 56 0.9 33.6
12:40 1017 30.03 846 24.98 9.4 48.8 56 1.1 33.9
12:45 1017 30.03 846 24.98 9.7 49.4 55 1.1 34
12:50 1017 30.03 846 24.98 9.8 49.7 56 1.4 34.5
12:55 1017 30.03 846 24.98 10 49.9 55 1.4 34.5
13:00 1017 30.03 847 25.01 10 50 54 1.1 33.9
13:05 1017 30.03 847 25.01 10 50 56 1.6 34.8
13:10 1017 30.03 847 25.01 10.1 50.2 55 1.5 34.6
13:15 1017 30.03 847 25.01 10.3 50.5 55 1.7 35
13:20 1017 30.03 847 25.01 10.3 50.6 54 1.5 34.6
13:25 1017 30.03 847 25.01 10.1 50.2 53 1 33.8
13:30 1018 30.06 847 25.01 10 50 54 1.1 33.9
13:35 1018 30.06 847 25.01 10.2 50.3 53 1 33.9
13:40 1018 30.06 847 25.01 10.2 50.4 53 1.1 34
13:45 1018 30.06 847 25.01 10.2 50.4 53 1 33.8
13:50 1018 30.06 847 25.01 9.9 49.8 55 1.3 34.3
13:55 1018 30.06 847 25.01 10.1 50.2 52 0.8 33.4
14:00 1018 30.06 847 25.01 10.7 51.2 51 1 33.8
14:05 1018 30.06 847 25.01 10.5 51 51 0.9 33.6
14:10 1018 30.06 847 25.01 10.2 50.3 52 0.8 33.5
14:15 1018 30.06 847 25.01 10.2 50.4 52 0.8 33.5
14:20 1018 30.06 847 25.01 10.3 50.5 53 1 33.9
14:25 1018 30.06 847 25.01 10.4 50.7 53 1.4 34.5
14:30 1018 30.06 847 25.01 10.1 50.1 55 1.5 34.6
14:35 1018 30.06 847 25.01 10.1 50.1 55 1.5 34.7
14:40 1018 30.06 847 25.01 9.9 49.8 55 1.2 34.2
14:45 1018 30.06 847 25.01 10.1 50.2 53 1.1 34
14:50 1018 30.06 847 25.01 9.9 49.7 52 0.5 32.9
14:55 1018 30.06 847 25.01 10.6 51.2 52 1.2 34.2
15:00 1018 30.06 847 25.01 10.5 50.9 53 1.2 34.2
15:05 1018 30.06 847 25.01 10.9 51.7 51 1.2 34.1
15:10 1018 30.06 847 25.01 10.8 51.4 52 1.3 34.3
15:15 1018 30.06 847 25.01 10.7 51.3 50 0.7 33.3
15:20 1018 30.06 847 25.01 12.1 53.9 47 1.2 34.1
15:25 1018 30.06 847 25.01 11.7 53.1 46 0.5 33
15:30 1018 30.06 847 25.01 11.9 53.4 48 1.3 34.4
15:35 1018 30.06 847 25.01 11.6 52.8 52 2 35.6
15:40 1018 30.06 847 25.01 11 51.7 49 0.7 33.3
15:45 1018 30.06 847 25.01 12.4 54.3 44 0.6 33.1
15:50 1018 30.06 847 25.01 13.1 55.6 43 0.8 33.4
15:55 1018 30.06 847 25.01 13.1 55.5 43 0.7 33.3
16:00 1018 30.06 847 25.01 14 57.1 39 0.5 32.8
16:05 1018 30.06 847 25.01 12.9 55.2 44 1.1 34
16:10 1018 30.06 847 25.01 12.1 53.9 45 0.6 33.1
16:15 1018 30.06 847 25.01 12.1 53.7 45 0.5 32.9
16:20 1018 30.06 847 25.01 11.7 53.1 47 0.9 33.7
16:25 1018 30.06 847 25.01 12 53.6 45 0.7 33.2
16:30 1018 30.06 847 25.01 12.7 54.8 45 1 33.9
16:35 1018 30.06 847 25.01 12.2 54 45 0.9 33.5
16:40 1018 30.06 847 25.01 12.6 54.6 45 1 33.8
16:45 1018 30.06 847 25.01 12.2 54 46 0.9 33.6
16:50 1018 30.06 847 25.01 12.3 54.2 45 0.9 33.6
16:55 1018 30.06 847 25.01 12.5 54.5 45 1 33.7
17:00 1018 30.06 847 25.01 12.6 54.7 45 1.1 33.9
17:05 1018 30.06 847 25.01 13.3 55.9 42 0.6 33.1
17:10 1018 30.06 847 25.01 13.1 55.7 45 1.6 34.9
17:15 1018 30.06 847 25.01 12.7 54.9 44 1 33.8
17:20 1018 30.06 847 25.01 13.5 56.3 42 0.9 33.7
17:25 1018 30.06 847 25.01 13.2 55.8 41 0.5 32.9
17:30 1018 30.06 847 25.01 12.7 54.9 43 0.7 33.2
17:35 1018 30.06 847 25.01 12.6 54.6 44 0.6 33.1
17:40 1018 30.06 847 25.01 12.6 54.6 44 0.7 33.3
17:45 1018 30.06 847 25.01 12.9 55.3 43 0.7 33.2
17:50 1018 30.06 847 25.01 13.1 55.5 43 0.9 33.5
17:55 1018 30.06 847 25.01 13.3 55.9 43 1 33.9
18:00 1018 30.06 847 25.01 13.3 55.9 42 0.6 33.1
18:05 1018 30.06 847 25.01 12.9 55.3 44 1.1 34.1
18:10 1018 30.06 847 25.01 12.1 53.7 47 1.2 34.2
18:15 1018 30.06 847 25.01 12.2 53.9 46 0.8 33.5
18:20 1018 30.06 847 25.01 12.4 54.4 46 1.3 34.3
18:25 1018 30.06 847 25.01 12.3 54.1 44 0.5 32.9
18:30 1018 30.06 847 25.01 12.1 53.8 46 0.9 33.7
18:35 1018 30.06 847 25.01 12.2 53.9 47 1.2 34.2
18:40 1018 30.06 847 25.01 12.4 54.3 44 0.5 32.9
18:45 1018 30.06 847 25.01 12.7 54.8 43 0.6 33.1
18:50 1018 30.06 847 25.01 12.8 55 43 0.5 32.9
18:55 1018 30.06 847 25.01 12.8 55 44 0.9 33.6
19:00 1018 30.06 847 25.01 12.9 55.2 43 0.8 33.4
19:05 1018 30.06 847 25.01 13.1 55.5 42 0.5 32.8
19:10 1018 30.06 847 25.01 13.1 55.5 43 1 33.8
19:15 1018 30.06 847 25.01 13.2 55.7 43 0.9 33.7
19:20 1018 30.06 847 25.01 13 55.3 43 0.7 33.2
19:25 1018 30.06 847 25.01 12.9 55.2 45 1.2 34.1
19:30 1018 30.06 847 25.01 12.8 55.1 44 1 33.9
19:35 1018 30.06 847 25.01 12.7 54.9 45 1.1 33.9
19:40 1018 30.06 847 25.01 12.7 54.8 45 1.1 33.9
19:45 1018 30.06 847 25.01 12.6 54.6 46 1.2 34.2
19:50 1018 30.06 847 25.01 12.4 54.3 45 1 33.8
19:55 1018 30.06 847 25.01 12.4 54.3 46 1.1 34
20:00 1018 30.06 847 25.01 12.4 54.3 47 1.3 34.4
20:05 1018 30.06 847 25.01 12.5 54.4 45 1 33.8
20:10 1018 30.06 847 25.01 12.5 54.4 46 1.3 34.3
20:15 1018 30.06 847 25.01 12.4 54.3 48 1.7 35
20:20 1018 30.06 847 25.01 12.3 54.2 50 2.1 35.9
20:25 1018 30.06 847 25.01 12.3 54.2 49 1.9 35.4
20:30 1018 30.06 847 25.01 12.3 54.1 51 2.4 36.3
20:35 1018 30.06 847 25.01 12 53.6 53 2.8 37
20:40 1018 30.06 847 25.01 11.8 53.2 52 2.3 36.1
20:45 1018 30.06 847 25.01 11.5 52.8 53 2.4 36.3
20:50 1018 30.06 847 25.01 11.5 52.7 55 2.9 37.2
20:55 1018 30.06 847 25.01 11.2 52.1 61 4.1 39.3
21:00 1018 30.06 847 25.01 10.9 51.5 64 4.4 40
21:05 1018 30.06 847 25.01 10.5 50.9 65 4.2 39.5
21:10 1018 30.06 847 25.01 10.4 50.8 65 4.2 39.6
21:15 1018 30.06 847 25.01 10.2 50.3 67 4.3 39.7
21:20 1018 30.06 847 25.01 9.9 49.8 68 4.4 39.8
21:25 1018 30.06 847 25.01 9.8 49.6 69 4.3 39.8
21:30 1018 30.06 847 25.01 9.6 49.3 69 4.3 39.8
21:35 1018 30.06 847 25.01 9.6 49.2 69 4.3 39.7
21:40 1018 30.06 847 25.01 9.4 48.8 69 4 39.1
21:45 1018 30.06 848 25.04 9.3 48.8 70 4.1 39.4
21:50 1018 30.06 848 25.04 9.4 48.9 70 4.1 39.4
21:55 1018 30.06 848 25.04 9.4 48.9 72 4.6 40.3
22:00 1019 30.09 848 25.04 9.3 48.7 73 4.8 40.6
22:05 1019 30.09 848 25.04 9.1 48.3 75 4.8 40.6
22:10 1019 30.09 848 25.04 8.9 47.9 75 4.7 40.4
22:15 1019 30.09 848 25.04 8.7 47.7 69 3.4 38.2
22:20 1019 30.09 848 25.04 8.9 48 74 4.5 40.1
22:25 1019 30.09 848 25.04 8.6 47.4 75 4.4 39.8
22:30 1019 30.09 848 25.04 8.5 47.3 73 3.9 39
22:35 1019 30.09 848 25.04 8.5 47.3 72 3.7 38.7
22:40 1019 30.09 848 25.04 8.6 47.5 71 3.6 38.5
22:45 1019 30.09 848 25.04 8.7 47.6 71 3.7 38.7
22:50 1019 30.09 848 25.04 8.8 47.8 72 4 39.1
22:55 1019 30.09 848 25.04 8.6 47.4 73 4 39.2
23:00 1019 30.09 848 25.04 8.4 47.2 72 3.7 38.7
23:05 1019 30.09 848 25.04 8.5 47.3 72 3.8 38.8
23:10 1019 30.09 848 25.04 8.6 47.5 70 3.4 38.2
23:15 1019 30.09 848 25.04 8.7 47.6 70 3.5 38.4
23:20 1019 30.09 848 25.04 8.6 47.4 72 3.9 39
23:25 1019 30.09 848 25.04 8.4 47.2 73 3.8 38.9
23:30 1019 30.09 848 25.04 8.4 47 75 4.3 39.7
23:35 1019 30.09 848 25.04 8.1 46.6 76 4.2 39.6
23:40 1019 30.09 848 25.04 8 46.3 77 4.1 39.4
23:45 1019 30.09 848 25.04 7.8 46.1 77 4 39.2
23:50 1019 30.09 848 25.04 7.8 46 77 4 39.3
23:55 1019 30.09 848 25.04 7.6 45.7 78 4.1 39.3
24:00 1019 30.09 848 25.04 7.5 45.5 77 3.7 38.6